Time;durP1;ratioP1;P1;durP2;ratioP2;P2;SDS_P1;SDS_P2;PMS_P1;PMS_P2;Temp;Humidity;BMP_temperature;BMP_pressure;BME280_temperature;BME280_humidity;BME280_pressure;Samples;Min_cycle;Max_cycle;Signal;HPM_P1;HPM_P2
2023/01/02 00:01:01;;;;;;;;;;;13.00;99.90;;;;;;5055582;28;20049;-74
2023/01/02 00:03:28;;;;;;;;;;;13.00;99.90;;;;;;5072543;28;19904;-74
2023/01/02 00:06:00;;;;;;;;;;;12.90;99.90;;;;;;5073814;28;19934;-75
2023/01/02 00:08:26;;;;;;;;;;;12.90;99.90;;;;;;5074175;28;19995;-74
2023/01/02 00:10:54;;;;;;;;;;;12.90;99.90;;;;;;5072911;28;20035;-75
2023/01/02 00:13:19;;;;;;;;;;;12.90;99.90;;;;;;5073511;28;19920;-75
2023/01/02 00:15:45;;;;;;;;;;;12.90;99.90;;;;;;5073489;28;19957;-75
2023/01/02 00:18:11;;;;;;;;;;;12.90;99.90;;;;;;5073784;28;19919;-75
2023/01/02 00:20:37;;;;;;;;;;;12.90;99.90;;;;;;5073579;28;20002;-75
2023/01/02 00:23:03;;;;;;;;;;;12.80;99.90;;;;;;5073972;28;19908;-75
2023/01/02 00:25:28;;;;;;;;;;;12.70;99.90;;;;;;5073468;28;20003;-77
2023/01/02 00:28:04;;;;;;;;;;;12.70;99.90;;;;;;5073467;28;20374;-75
2023/01/02 00:30:29;;;;;;;;;;;12.70;99.90;;;;;;5073464;28;19905;-76
2023/01/02 00:33:01;;;;;;;;;;;12.70;99.90;;;;;;5073168;28;19968;-74
2023/01/02 00:35:27;;;;;;;;;;;12.70;99.90;;;;;;5073548;28;19904;-77
2023/01/02 00:37:59;;;;;;;;;;;12.70;99.90;;;;;;5055449;28;19928;-76
2023/01/02 00:40:27;;;;;;;;;;;12.70;99.90;;;;;;5073605;28;20347;-76
2023/01/02 00:42:54;;;;;;;;;;;12.70;99.90;;;;;;5072925;28;19908;-75
2023/01/02 00:45:21;;;;;;;;;;;12.70;99.90;;;;;;5073178;28;19919;-76
2023/01/02 00:47:53;;;;;;;;;;;12.70;99.90;;;;;;5072972;28;19911;-75
2023/01/02 00:50:20;;;;;;;;;;;12.70;99.90;;;;;;5073049;28;20011;-76
2023/01/02 00:52:50;;;;;;;;;;;12.70;99.90;;;;;;5054970;28;20240;-76
2023/01/02 00:55:16;;;;;;;;;;;12.70;99.90;;;;;;5072917;28;20374;-76
2023/01/02 00:57:42;;;;;;;;;;;12.70;99.90;;;;;;5073211;28;19912;-76
2023/01/02 01:00:10;;;;;;;;;;;12.80;99.90;;;;;;5073306;28;20409;-76
2023/01/02 01:02:39;;;;;;;;;;;12.80;99.90;;;;;;5072588;28;19904;-77
2023/01/02 01:05:05;;;;;;;;;;;12.80;99.90;;;;;;5072495;28;19988;-75
2023/01/02 01:07:30;;;;;;;;;;;12.80;99.90;;;;;;5072281;28;20371;-75
2023/01/02 01:09:56;;;;;;;;;;;12.90;99.90;;;;;;5072183;28;19924;-76
2023/01/02 01:12:22;;;;;;;;;;;12.90;99.90;;;;;;5072737;28;20253;-76
2023/01/02 01:14:58;;;;;;;;;;;12.90;99.90;;;;;;5072336;28;19911;-75
2023/01/02 01:17:27;;;;;;;;;;;12.90;99.90;;;;;;5072328;28;19919;-75
2023/01/02 01:19:52;;;;;;;;;;;12.90;99.90;;;;;;5072192;28;19904;-75
2023/01/02 01:22:18;;;;;;;;;;;12.80;99.90;;;;;;5072007;28;19911;-76
2023/01/02 01:25:06;;;;;;;;;;;12.80;99.90;;;;;;5054055;28;19913;-75
2023/01/02 01:27:32;;;;;;;;;;;12.80;99.90;;;;;;5072748;28;19904;-75
2023/01/02 01:30:28;;;;;;;;;;;12.80;99.90;;;;;;5054671;28;19911;-76
2023/01/02 01:32:54;;;;;;;;;;;12.80;99.90;;;;;;5072906;28;19911;-76
2023/01/02 01:35:29;;;;;;;;;;;12.80;99.90;;;;;;5072799;28;19904;-76
2023/01/02 01:37:55;;;;;;;;;;;12.80;99.90;;;;;;5072613;28;19916;-75
2023/01/02 01:40:21;;;;;;;;;;;12.80;99.90;;;;;;5073316;28;19999;-76
2023/01/02 01:42:46;;;;;;;;;;;12.90;99.90;;;;;;5072545;28;19924;-76
2023/01/02 01:45:14;;;;;;;;;;;12.80;99.90;;;;;;5072091;28;19960;-74
2023/01/02 01:47:53;;;;;;;;;;;12.80;99.90;;;;;;5071510;28;19911;-77
2023/01/02 01:50:38;;;;;;;;;;;12.90;99.90;;;;;;5072103;28;19911;-75
2023/01/02 01:53:07;;;;;;;;;;;12.80;99.90;;;;;;5071525;28;19905;-75
2023/01/02 01:55:39;;;;;;;;;;;12.80;99.90;;;;;;5071895;28;19993;-75
2023/01/02 01:58:05;;;;;;;;;;;12.80;99.90;;;;;;5070379;28;19912;-75
2023/01/02 02:00:33;;;;;;;;;;;12.80;99.90;;;;;;5072351;22;19967;-75
2023/01/02 02:03:03;;;;;;;;;;;12.70;99.90;;;;;;5031755;28;19909;-75
2023/01/02 02:05:29;;;;;;;;;;;12.70;99.90;;;;;;5031819;28;19913;-75
2023/01/02 02:08:07;;;;;;;;;;;12.70;99.90;;;;;;5031763;28;20253;-76
2023/01/02 02:10:36;;;;;;;;;;;12.70;99.90;;;;;;5031491;28;19905;-76
2023/01/02 02:13:05;;;;;;;;;;;12.60;99.90;;;;;;5011935;28;19927;-74
2023/01/02 02:15:53;;;;;;;;;;;12.70;99.90;;;;;;5025947;28;20043;-75
2023/01/02 02:18:25;;;;;;;;;;;12.70;99.90;;;;;;5037130;28;19946;-75
2023/01/02 02:20:51;;;;;;;;;;;12.70;99.90;;;;;;5042088;28;19905;-76
2023/01/02 02:23:38;;;;;;;;;;;12.80;99.90;;;;;;5031682;28;19915;-72
2023/01/02 02:26:12;;;;;;;;;;;12.80;99.90;;;;;;5027635;28;19924;-71
2023/01/02 02:28:55;;;;;;;;;;;12.70;99.90;;;;;;5039499;28;19924;-72
2023/01/02 02:31:31;;;;;;;;;;;12.70;99.90;;;;;;5039220;28;19921;-74
2023/01/02 02:34:00;;;;;;;;;;;12.70;99.90;;;;;;5038459;28;19996;-71
2023/01/02 02:36:38;;;;;;;;;;;12.60;99.90;;;;;;5036648;28;19963;-71
2023/01/02 02:39:18;;;;;;;;;;;12.60;99.90;;;;;;5011614;28;19979;-75
2023/01/02 02:41:46;;;;;;;;;;;12.60;99.90;;;;;;5019587;28;19916;-75
2023/01/02 02:44:31;;;;;;;;;;;12.60;99.90;;;;;;5030817;28;19998;-76
2023/01/02 02:46:57;;;;;;;;;;;12.60;99.90;;;;;;5031360;28;19911;-75
2023/01/02 02:49:35;;;;;;;;;;;12.50;99.90;;;;;;5030892;28;20276;-76
2023/01/02 02:52:20;;;;;;;;;;;12.50;99.90;;;;;;5031052;28;19905;-77
2023/01/02 02:54:50;;;;;;;;;;;12.40;99.90;;;;;;5030910;28;19905;-75
2023/01/02 02:57:16;;;;;;;;;;;12.40;99.90;;;;;;5031075;28;20253;-75
2023/01/02 02:59:43;;;;;;;;;;;12.40;99.90;;;;;;5030959;28;20277;-76
2023/01/02 03:02:13;;;;;;;;;;;12.30;99.90;;;;;;5030704;28;20342;-76
2023/01/02 03:04:39;;;;;;;;;;;12.30;99.90;;;;;;5030680;28;20342;-75
2023/01/02 03:07:13;;;;;;;;;;;12.30;99.90;;;;;;5013206;28;19909;-75
2023/01/02 03:09:57;;;;;;;;;;;12.20;99.90;;;;;;5030719;28;20378;-77
2023/01/02 03:12:49;;;;;;;;;;;12.10;99.90;;;;;;5030623;28;19905;-76
2023/01/02 03:15:23;;;;;;;;;;;12.00;99.90;;;;;;5026573;28;19909;-76
2023/01/02 03:17:55;;;;;;;;;;;11.90;99.90;;;;;;5030507;28;19906;-75
2023/01/02 03:20:25;;;;;;;;;;;11.90;99.90;;;;;;5012746;28;20330;-76
2023/01/02 03:22:55;;;;;;;;;;;11.80;99.90;;;;;;5030551;28;20415;-75
2023/01/02 03:25:21;;;;;;;;;;;11.80;99.90;;;;;;5029767;28;19913;-75
2023/01/02 03:28:06;;;;;;;;;;;11.70;99.90;;;;;;5029641;28;19905;-76
2023/01/02 03:30:35;;;;;;;;;;;11.70;99.90;;;;;;5030247;28;20003;-75
2023/01/02 03:33:16;;;;;;;;;;;11.60;99.90;;;;;;5012678;28;20047;-75
2023/01/02 03:36:01;;;;;;;;;;;11.60;99.90;;;;;;5030666;28;19960;-75
2023/01/02 03:39:01;;;;;;;;;;;11.60;99.90;;;;;;5030503;28;19909;-75
2023/01/02 03:41:31;;;;;;;;;;;11.60;99.90;;;;;;5031087;28;19989;-75
2023/01/02 03:43:58;;;;;;;;;;;11.70;99.90;;;;;;5031019;28;20352;-74
2023/01/02 03:46:24;;;;;;;;;;;11.70;99.90;;;;;;5032486;28;19988;-75
2023/01/02 03:48:59;;;;;;;;;;;11.70;99.90;;;;;;5033929;28;19943;-75
2023/01/02 03:51:25;;;;;;;;;;;11.70;99.90;;;;;;5034083;28;19992;-74
2023/01/02 03:53:52;;;;;;;;;;;11.60;99.90;;;;;;5033925;28;20044;-74
2023/01/02 03:56:22;;;;;;;;;;;11.60;99.90;;;;;;5034433;28;19904;-75
2023/01/02 03:58:55;;;;;;;;;;;11.60;99.90;;;;;;5034672;28;19909;-75
2023/01/02 04:01:41;;;;;;;;;;;11.60;99.90;;;;;;5034286;28;20003;-75
2023/01/02 04:04:10;;;;;;;;;;;11.60;99.90;;;;;;5016080;28;20349;-75
2023/01/02 04:06:45;;;;;;;;;;;11.60;99.90;;;;;;5034712;28;20368;-74
2023/01/02 04:09:21;;;;;;;;;;;11.60;99.90;;;;;;5034659;28;19935;-75
2023/01/02 04:11:51;;;;;;;;;;;11.70;99.90;;;;;;5034701;28;20292;-75
2023/01/02 04:14:19;;;;;;;;;;;11.70;99.90;;;;;;5034620;28;19928;-71
2023/01/02 04:16:48;;;;;;;;;;;11.60;99.90;;;;;;5034605;28;20068;-84
2023/01/02 04:19:18;;;;;;;;;;;11.60;99.90;;;;;;5016538;28;20043;-75
2023/01/02 04:21:58;;;;;;;;;;;11.60;99.90;;;;;;5034280;28;20382;-73
2023/01/02 04:24:28;;;;;;;;;;;11.60;99.90;;;;;;5034574;28;20414;-75
2023/01/02 04:27:17;;;;;;;;;;;11.60;99.90;;;;;;5035357;28;19905;-75
2023/01/02 04:29:45;;;;;;;;;;;11.60;99.90;;;;;;5031694;28;20340;-75
2023/01/02 04:32:32;;;;;;;;;;;11.60;99.90;;;;;;5034732;28;19905;-75
2023/01/02 04:34:59;;;;;;;;;;;11.50;99.90;;;;;;5034467;28;19920;-75
2023/01/02 04:37:32;;;;;;;;;;;11.50;99.90;;;;;;5034542;28;20367;-75
2023/01/02 04:39:59;;;;;;;;;;;11.40;99.90;;;;;;5015890;28;20269;-75
2023/01/02 04:42:25;;;;;;;;;;;11.40;99.90;;;;;;5006883;28;19941;-75
2023/01/02 04:44:51;;;;;;;;;;;11.40;99.90;;;;;;5014340;28;19956;-75
2023/01/02 04:47:17;;;;;;;;;;;11.40;99.90;;;;;;5014820;28;19932;-75
2023/01/02 04:49:43;;;;;;;;;;;11.40;99.90;;;;;;5014521;28;19912;-74
2023/01/02 04:52:20;;;;;;;;;;;11.40;99.90;;;;;;5014484;28;20324;-74
2023/01/02 04:54:49;;;;;;;;;;;11.40;99.90;;;;;;5014524;28;19905;-75
2023/01/02 04:57:15;;;;;;;;;;;11.40;99.90;;;;;;5013588;28;19909;-74
2023/01/02 04:59:45;;;;;;;;;;;11.40;99.90;;;;;;5014561;28;19912;-74
2023/01/02 05:02:11;;;;;;;;;;;11.40;99.90;;;;;;5014171;28;19924;-75
2023/01/02 05:05:05;;;;;;;;;;;11.50;99.90;;;;;;5013962;28;19917;-73
2023/01/02 05:07:41;;;;;;;;;;;11.50;99.90;;;;;;5014463;28;19960;-74
2023/01/02 05:10:07;;;;;;;;;;;11.50;99.90;;;;;;5014263;28;20000;-74
2023/01/02 05:12:39;;;;;;;;;;;11.40;99.90;;;;;;5014455;28;20331;-75
2023/01/02 05:15:09;;;;;;;;;;;11.50;99.90;;;;;;5004700;28;19915;-74
2023/01/02 05:17:41;;;;;;;;;;;11.40;99.90;;;;;;5014388;28;19909;-75
2023/01/02 05:20:08;;;;;;;;;;;11.40;99.90;;;;;;5014484;28;19924;-74
2023/01/02 05:25:28;;;;;;;;;;;11.40;99.90;;;;;;5034590;28;20376;-74
2023/01/02 05:28:06;;;;;;;;;;;11.40;99.90;;;;;;5034200;28;19905;-75
2023/01/02 05:30:32;;;;;;;;;;;11.40;99.90;;;;;;5034538;28;19945;-75
2023/01/02 05:33:04;;;;;;;;;;;11.40;99.90;;;;;;5034127;28;20001;-75
2023/01/02 05:35:32;;;;;;;;;;;11.40;99.90;;;;;;5034014;28;20372;-74
2023/01/02 05:37:58;;;;;;;;;;;11.30;99.90;;;;;;5034418;28;20364;-74
2023/01/02 05:40:23;;;;;;;;;;;11.20;99.90;;;;;;5011021;28;19905;-75
2023/01/02 05:43:04;;;;;;;;;;;11.10;99.90;;;;;;5011217;28;20276;-74
2023/01/02 05:45:30;;;;;;;;;;;11.10;99.90;;;;;;4998427;28;19964;-74
2023/01/02 05:47:56;;;;;;;;;;;11.10;99.90;;;;;;4996156;28;19905;-74
2023/01/02 05:50:22;;;;;;;;;;;11.10;99.90;;;;;;5013945;28;19905;-74
2023/01/02 05:53:10;;;;;;;;;;;11.20;99.90;;;;;;4996307;28;19905;-75
2023/01/02 05:55:39;;;;;;;;;;;11.20;99.90;;;;;;5013855;28;20372;-74
2023/01/02 05:58:05;;;;;;;;;;;11.20;99.90;;;;;;5007323;28;20241;-74
2023/01/02 06:03:46;;;;;;;;;;;11.10;99.90;;;;;;4978476;28;19933;-70
2023/01/02 06:06:12;;;;;;;;;;;11.20;99.90;;;;;;4974718;28;19949;-75
2023/01/02 06:08:38;;;;;;;;;;;11.20;99.90;;;;;;4974989;28;20343;-74
2023/01/02 06:11:08;;;;;;;;;;;11.30;99.90;;;;;;4973276;28;19906;-75
2023/01/02 06:13:35;;;;;;;;;;;11.30;99.90;;;;;;4981859;28;19921;-70
2023/01/02 06:16:03;;;;;;;;;;;11.40;99.90;;;;;;4985404;28;20047;-74
2023/01/02 06:18:30;;;;;;;;;;;11.40;99.90;;;;;;4994044;28;19913;-74
2023/01/02 06:21:01;;;;;;;;;;;11.50;99.90;;;;;;4994454;28;19989;-73
2023/01/02 06:23:27;;;;;;;;;;;11.50;99.90;;;;;;4994126;28;19906;-74
2023/01/02 06:26:01;;;;;;;;;;;11.60;99.90;;;;;;4992743;28;19964;-74
2023/01/02 06:28:26;;;;;;;;;;;11.60;99.90;;;;;;4994007;28;19912;-73
2023/01/02 06:30:58;;;;;;;;;;;11.60;99.90;;;;;;4993735;28;19905;-73
2023/01/02 06:33:24;;;;;;;;;;;11.60;99.90;;;;;;4992659;28;19932;-74
2023/01/02 06:36:01;;;;;;;;;;;11.60;99.90;;;;;;4992402;28;19906;-74
2023/01/02 06:38:27;;;;;;;;;;;11.70;99.90;;;;;;4994121;28;19905;-74
2023/01/02 06:40:55;;;;;;;;;;;11.80;99.90;;;;;;4993694;28;19906;-74
2023/01/02 06:43:21;;;;;;;;;;;12.00;99.90;;;;;;4993828;28;20350;-74
2023/01/02 06:45:46;;;;;;;;;;;12.20;99.90;;;;;;4993760;28;19941;-74
2023/01/02 06:48:12;;;;;;;;;;;12.30;99.90;;;;;;4993330;28;20329;-74
2023/01/02 06:50:38;;;;;;;;;;;12.50;99.90;;;;;;4992763;28;19940;-74
2023/01/02 06:53:04;;;;;;;;;;;12.90;99.90;;;;;;4992946;28;19906;-74
2023/01/02 06:55:30;;;;;;;;;;;13.30;99.90;;;;;;4992852;28;20259;-74
2023/01/02 06:57:56;;;;;;;;;;;13.60;99.90;;;;;;4992560;28;19917;-74
2023/01/02 07:00:22;;;;;;;;;;;13.90;99.90;;;;;;4992756;28;19932;-74
2023/01/02 07:02:49;;;;;;;;;;;14.30;99.90;;;;;;5019690;28;20007;-75
2023/01/02 07:05:16;;;;;;;;;;;14.50;99.90;;;;;;5005617;28;20402;-75
2023/01/02 07:07:42;;;;;;;;;;;14.60;99.90;;;;;;5012420;28;19963;-75
2023/01/02 07:10:16;;;;;;;;;;;14.70;99.90;;;;;;5007313;28;19909;-77
2023/01/02 07:12:42;;;;;;;;;;;15.40;99.90;;;;;;5033627;28;19908;-75
2023/01/02 07:15:07;;;;;;;;;;;15.70;99.90;;;;;;5016826;28;20055;-74
2023/01/02 07:17:34;;;;;;;;;;;16.10;99.90;;;;;;5012413;28;20369;-72
2023/01/02 07:19:59;;;;;;;;;;;16.30;99.90;;;;;;5024197;28;19915;-75
2023/01/02 07:22:28;;;;;;;;;;;16.50;99.90;;;;;;5019477;28;19916;-75
2023/01/02 07:24:57;;;;;;;;;;;16.60;99.90;;;;;;5016337;28;20295;-75
2023/01/02 07:27:29;;;;;;;;;;;16.50;99.90;;;;;;5016411;28;20015;-75
2023/01/02 07:29:55;;;;;;;;;;;16.30;99.90;;;;;;5016577;28;19948;-75
2023/01/02 07:32:21;;;;;;;;;;;16.60;99.90;;;;;;5016308;28;19948;-75
2023/01/02 07:34:56;;;;;;;;;;;16.70;99.90;;;;;;5016218;28;19905;-76
2023/01/02 07:37:23;;;;;;;;;;;16.90;99.90;;;;;;5016162;28;19912;-76
2023/01/02 07:39:53;;;;;;;;;;;16.70;99.90;;;;;;5016663;28;19905;-76
2023/01/02 07:42:22;;;;;;;;;;;16.90;99.90;;;;;;4967274;28;20288;-76
2023/01/02 07:44:54;;;;;;;;;;;17.20;99.90;;;;;;5016739;28;20028;-76
2023/01/02 07:47:23;;;;;;;;;;;17.50;99.90;;;;;;5016192;28;19988;-74
2023/01/02 07:49:58;;;;;;;;;;;17.50;99.90;;;;;;5015652;28;20008;-76
2023/01/02 07:52:28;;;;;;;;;;;17.90;99.90;;;;;;5016456;28;19909;-73
2023/01/02 07:54:54;;;;;;;;;;;17.30;99.90;;;;;;5015882;28;19905;-75
2023/01/02 07:57:34;;;;;;;;;;;16.80;99.90;;;;;;5016358;28;20272;-72
2023/01/02 07:59:59;;;;;;;;;;;16.20;99.90;;;;;;5015962;28;20000;-75
2023/01/02 08:02:25;;;;;;;;;;;15.90;99.90;;;;;;5015908;28;19967;-75
2023/01/02 08:04:51;;;;;;;;;;;15.40;99.90;;;;;;5016099;28;19917;-75
2023/01/02 08:07:17;;;;;;;;;;;15.40;99.90;;;;;;5015666;28;19905;-76
2023/01/02 08:09:42;;;;;;;;;;;15.40;99.90;;;;;;5015454;28;20269;-74
2023/01/02 08:12:08;;;;;;;;;;;15.50;99.90;;;;;;5015851;28;20373;-74
2023/01/02 08:14:34;;;;;;;;;;;15.40;99.90;;;;;;5015606;28;19905;-68
2023/01/02 08:17:12;;;;;;;;;;;15.60;99.90;;;;;;5015460;28;20255;-74
2023/01/02 08:19:56;;;;;;;;;;;15.70;99.90;;;;;;5015444;28;19952;-72
2023/01/02 08:22:23;;;;;;;;;;;15.30;99.90;;;;;;5015553;28;20358;-72
2023/01/02 08:24:49;;;;;;;;;;;15.20;99.90;;;;;;4997454;28;19913;-72
2023/01/02 08:27:15;;;;;;;;;;;15.20;99.90;;;;;;4997583;28;19985;-73
2023/01/02 08:29:40;;;;;;;;;;;15.40;99.90;;;;;;5015738;28;19905;-74
2023/01/02 08:32:06;;;;;;;;;;;15.40;99.90;;;;;;5029483;28;20250;-72
2023/01/02 08:34:33;;;;;;;;;;;15.30;99.90;;;;;;5034558;28;19952;-72
2023/01/02 08:36:59;;;;;;;;;;;15.20;99.90;;;;;;5033878;28;20008;-73
2023/01/02 08:39:25;;;;;;;;;;;15.30;99.90;;;;;;5034750;28;19944;-71
2023/01/02 08:41:58;;;;;;;;;;;15.20;99.90;;;;;;5034600;28;19905;-76
2023/01/02 08:44:39;;;;;;;;;;;15.30;99.90;;;;;;5034466;28;19913;-75
2023/01/02 08:47:05;;;;;;;;;;;15.20;99.90;;;;;;5034835;28;20369;-75
2023/01/02 08:49:31;;;;;;;;;;;15.20;99.90;;;;;;5033834;28;19948;-74
2023/01/02 08:51:58;;;;;;;;;;;15.40;99.90;;;;;;5034118;28;20218;-75
2023/01/02 08:54:24;;;;;;;;;;;15.60;99.90;;;;;;5015875;28;19912;-74
2023/01/02 08:56:50;;;;;;;;;;;15.50;99.90;;;;;;5033717;28;19905;-74
2023/01/02 08:59:15;;;;;;;;;;;15.60;99.90;;;;;;5033428;28;19952;-74
2023/01/02 09:01:41;;;;;;;;;;;16.00;99.90;;;;;;5015277;28;19960;-75
2023/01/02 09:04:08;;;;;;;;;;;16.00;99.90;;;;;;5031988;28;19913;-75
2023/01/02 09:06:41;;;;;;;;;;;16.10;99.90;;;;;;5033979;28;20380;-72
2023/01/02 09:09:08;;;;;;;;;;;16.50;99.90;;;;;;5033667;28;19992;-75
2023/01/02 09:11:44;;;;;;;;;;;16.30;99.90;;;;;;5015549;28;20419;-74
2023/01/02 09:14:11;;;;;;;;;;;16.50;99.90;;;;;;5033645;28;19913;-73
2023/01/02 09:16:38;;;;;;;;;;;16.90;99.90;;;;;;5033258;28;19921;-74
2023/01/02 09:19:03;;;;;;;;;;;17.00;99.90;;;;;;5033975;28;19970;-73
2023/01/02 09:21:29;;;;;;;;;;;17.30;99.90;;;;;;5034248;28;19913;-73
2023/01/02 09:23:56;;;;;;;;;;;17.50;99.90;;;;;;5034473;28;19996;-73
2023/01/02 09:26:21;;;;;;;;;;;17.60;99.90;;;;;;5016604;28;19909;-74
2023/01/02 09:28:47;;;;;;;;;;;17.80;99.90;;;;;;5034037;28;20311;-72
2023/01/02 09:31:14;;;;;;;;;;;17.70;99.90;;;;;;5034060;28;20345;-73
2023/01/02 09:33:41;;;;;;;;;;;17.80;99.90;;;;;;5033840;28;20015;-74
2023/01/02 09:36:08;;;;;;;;;;;17.70;99.90;;;;;;5015939;28;20294;-73
2023/01/02 09:38:40;;;;;;;;;;;17.40;99.90;;;;;;5033812;28;19912;-69
2023/01/02 09:41:09;;;;;;;;;;;17.10;99.90;;;;;;5030064;28;19956;-73
2023/01/02 09:43:40;;;;;;;;;;;17.20;99.90;;;;;;5024497;28;19912;-73
2023/01/02 09:46:10;;;;;;;;;;;17.50;99.90;;;;;;4995902;28;20420;-74
2023/01/02 09:48:38;;;;;;;;;;;17.70;99.90;;;;;;5013853;28;19909;-75
2023/01/02 09:51:04;;;;;;;;;;;17.80;99.90;;;;;;5015086;28;19912;-75
2023/01/02 09:53:31;;;;;;;;;;;17.80;99.90;;;;;;5015188;28;19928;-74
2023/01/02 09:56:07;;;;;;;;;;;17.90;99.90;;;;;;5012735;28;20357;-74
2023/01/02 09:58:49;;;;;;;;;;;18.00;99.90;;;;;;4995377;28;19909;-73
2023/01/02 10:01:26;;;;;;;;;;;18.10;99.90;;;;;;5020324;28;19929;-73
2023/01/02 10:04:20;;;;;;;;;;;18.00;99.90;;;;;;5013093;28;19921;-74
2023/01/02 10:06:58;;;;;;;;;;;18.00;99.90;;;;;;4936496;29;20391;-74
2023/01/02 10:09:29;;;;;;;;;;;18.30;99.90;;;;;;4952407;29;20271;-74
2023/01/02 10:12:00;;;;;;;;;;;18.50;99.90;;;;;;4952331;29;20049;-73
2023/01/02 10:14:28;;;;;;;;;;;18.40;99.90;;;;;;4952334;29;19996;-73
2023/01/02 10:17:02;;;;;;;;;;;18.30;99.90;;;;;;4952162;29;19910;-74
2023/01/02 10:19:54;;;;;;;;;;;18.30;99.90;;;;;;4951920;29;19913;-73
2023/01/02 10:22:25;;;;;;;;;;;18.40;99.90;;;;;;4934128;29;19918;-74
2023/01/02 10:24:58;;;;;;;;;;;18.60;99.90;;;;;;4951956;29;19973;-74
2023/01/02 10:27:28;;;;;;;;;;;18.70;99.90;;;;;;4951714;29;20347;-74
2023/01/02 10:30:05;;;;;;;;;;;18.70;99.90;;;;;;4952291;29;19917;-74
2023/01/02 10:32:44;;;;;;;;;;;18.30;99.90;;;;;;4949867;29;19906;-74
2023/01/02 10:35:15;;;;;;;;;;;18.20;99.90;;;;;;4951834;29;19906;-73
2023/01/02 10:37:48;;;;;;;;;;;18.20;99.90;;;;;;4935802;29;19907;-72
2023/01/02 10:40:14;;;;;;;;;;;18.00;99.90;;;;;;4935502;29;20322;-73
2023/01/02 10:42:40;;;;;;;;;;;18.00;99.90;;;;;;4957701;28;19931;-74
2023/01/02 10:45:12;;;;;;;;;;;18.00;99.90;;;;;;4992486;28;19921;-73
2023/01/02 10:47:39;;;;;;;;;;;18.10;99.90;;;;;;4992524;28;19912;-74
2023/01/02 10:50:07;;;;;;;;;;;18.30;99.90;;;;;;4992279;28;19910;-73
2023/01/02 10:52:36;;;;;;;;;;;18.30;99.90;;;;;;4992814;28;19956;-72
2023/01/02 10:55:02;;;;;;;;;;;18.20;99.90;;;;;;4992942;28;20340;-73
2023/01/02 10:57:40;;;;;;;;;;;18.00;99.90;;;;;;4996931;28;19905;-75
2023/01/02 11:00:15;;;;;;;;;;;17.90;99.90;;;;;;4996743;28;19914;-73
2023/01/02 11:02:41;;;;;;;;;;;17.80;99.90;;;;;;5026320;28;19917;-73
2023/01/02 11:05:15;;;;;;;;;;;17.70;99.90;;;;;;5035911;28;20019;-73
2023/01/02 11:07:46;;;;;;;;;;;17.80;99.90;;;;;;5036037;28;19912;-74
2023/01/02 11:10:23;;;;;;;;;;;17.70;99.90;;;;;;5018154;28;19912;-74
2023/01/02 11:12:49;;;;;;;;;;;17.80;99.90;;;;;;5017469;28;20424;-73
2023/01/02 11:15:21;;;;;;;;;;;18.10;99.90;;;;;;5017664;28;19991;-74
2023/01/02 11:18:21;;;;;;;;;;;18.20;99.90;;;;;;5036653;28;20349;-73
2023/01/02 11:20:49;;;;;;;;;;;17.90;99.90;;;;;;5036331;28;19905;-75
2023/01/02 11:23:15;;;;;;;;;;;18.00;99.90;;;;;;5018582;28;20264;-74
2023/01/02 11:25:42;;;;;;;;;;;18.40;99.90;;;;;;5036622;28;19913;-73
2023/01/02 11:28:16;;;;;;;;;;;18.60;99.90;;;;;;5036770;28;19911;-73
2023/01/02 11:30:46;;;;;;;;;;;18.90;99.90;;;;;;5035891;28;19948;-73
2023/01/02 11:33:16;;;;;;;;;;;19.10;99.90;;;;;;5035851;28;19916;-74
2023/01/02 11:35:45;;;;;;;;;;;19.40;99.90;;;;;;5035558;28;19975;-73
2023/01/02 11:38:14;;;;;;;;;;;19.50;99.90;;;;;;5035417;28;19905;-72
2023/01/02 11:40:50;;;;;;;;;;;19.70;99.90;;;;;;5017485;28;19913;-73
2023/01/02 11:46:05;;;;;;;;;;;19.90;99.90;;;;;;5015774;28;19920;-73
2023/01/02 11:48:32;;;;;;;;;;;19.90;99.90;;;;;;5015467;28;19995;-74
2023/01/02 11:50:58;;;;;;;;;;;20.30;99.90;;;;;;5014703;28;19952;-73
2023/01/02 11:53:28;;;;;;;;;;;20.40;99.90;;;;;;5014708;28;20269;-73
2023/01/02 11:56:29;;;;;;;;;;;20.40;99.90;;;;;;5014915;28;20357;-73
2023/01/02 11:59:18;;;;;;;;;;;20.30;99.90;;;;;;4935543;29;19936;-73
2023/01/02 12:02:00;;;;;;;;;;;20.30;99.90;;;;;;4946425;29;19962;-73
2023/01/02 12:04:26;;;;;;;;;;;20.40;99.90;;;;;;4954572;29;19965;-73
2023/01/02 12:07:16;;;;;;;;;;;20.50;99.90;;;;;;4954373;28;19907;-73
2023/01/02 12:09:58;;;;;;;;;;;20.50;99.90;;;;;;4955144;29;20390;-74
2023/01/02 12:12:29;;;;;;;;;;;20.00;99.90;;;;;;4935132;29;19913;-74
2023/01/02 12:15:07;;;;;;;;;;;20.20;99.90;;;;;;4935457;29;20343;-74
2023/01/02 12:17:52;;;;;;;;;;;20.20;99.90;;;;;;4936146;29;19983;-74
2023/01/02 12:20:17;;;;;;;;;;;20.30;99.90;;;;;;4935927;29;19942;-74
2023/01/02 12:23:00;;;;;;;;;;;20.20;99.90;;;;;;4936191;29;19958;-74
2023/01/02 12:25:43;;;;;;;;;;;20.10;99.90;;;;;;4936342;29;19922;-74
2023/01/02 12:28:08;;;;;;;;;;;20.00;99.90;;;;;;4920178;29;20339;-73
2023/01/02 12:30:40;;;;;;;;;;;20.20;99.90;;;;;;4935917;29;19913;-70
2023/01/02 12:33:08;;;;;;;;;;;20.40;99.90;;;;;;4983498;28;19905;-74
2023/01/02 12:35:57;;;;;;;;;;;20.50;99.90;;;;;;5015363;28;20336;-71
2023/01/02 12:38:33;;;;;;;;;;;20.40;99.90;;;;;;5015337;28;19912;-74
2023/01/02 12:41:20;;;;;;;;;;;20.20;99.90;;;;;;5015088;28;19909;-74
2023/01/02 12:43:55;;;;;;;;;;;20.20;99.90;;;;;;5015608;28;19963;-75
2023/01/02 12:46:25;;;;;;;;;;;19.90;99.90;;;;;;5017515;28;19920;-75
2023/01/02 12:49:03;;;;;;;;;;;19.80;99.90;;;;;;5034708;28;19944;-74
2023/01/02 12:51:57;;;;;;;;;;;19.80;99.90;;;;;;5034374;28;19991;-69
2023/01/02 12:54:26;;;;;;;;;;;19.80;99.90;;;;;;5014729;28;20375;-73
2023/01/02 12:57:11;;;;;;;;;;;19.90;99.90;;;;;;5015127;28;19913;-76
2023/01/02 12:59:43;;;;;;;;;;;19.60;99.90;;;;;;5014741;28;19905;-74
2023/01/02 13:02:39;;;;;;;;;;;19.60;99.90;;;;;;5029003;28;19913;-74
2023/01/02 13:05:12;;;;;;;;;;;19.60;99.90;;;;;;5034172;28;19913;-74
2023/01/02 13:07:46;;;;;;;;;;;19.80;99.90;;;;;;5033768;28;19912;-73
2023/01/02 13:10:17;;;;;;;;;;;19.90;99.90;;;;;;5033958;28;19944;-75
2023/01/02 13:12:44;;;;;;;;;;;19.80;99.90;;;;;;5034188;28;20004;-76
2023/01/02 13:15:19;;;;;;;;;;;19.90;99.90;;;;;;5034200;28;19948;-76
2023/01/02 13:17:49;;;;;;;;;;;19.70;99.90;;;;;;5033900;28;19927;-75
2023/01/02 13:20:33;;;;;;;;;;;19.80;99.90;;;;;;5034553;28;19905;-76
2023/01/02 13:23:01;;;;;;;;;;;19.80;99.90;;;;;;5034343;28;19911;-75
2023/01/02 13:25:29;;;;;;;;;;;19.90;99.90;;;;;;5034778;28;19912;-75
2023/01/02 13:27:57;;;;;;;;;;;19.70;99.90;;;;;;5034747;28;19912;-75
2023/01/02 13:30:43;;;;;;;;;;;19.50;99.90;;;;;;5034379;28;19905;-75
2023/01/02 13:33:27;;;;;;;;;;;19.60;99.90;;;;;;5034855;28;19905;-71
2023/01/02 13:35:53;;;;;;;;;;;19.40;99.90;;;;;;5034160;28;19905;-75
2023/01/02 13:38:24;;;;;;;;;;;19.30;99.90;;;;;;5034825;28;19911;-75
2023/01/02 13:40:59;;;;;;;;;;;19.30;99.90;;;;;;5034177;28;20011;-75
2023/01/02 13:43:26;;;;;;;;;;;19.20;99.90;;;;;;5034062;28;19909;-76
2023/01/02 13:45:54;;;;;;;;;;;19.10;99.90;;;;;;5016231;28;19920;-75
2023/01/02 13:48:33;;;;;;;;;;;19.20;99.90;;;;;;5034391;28;19958;-75
2023/01/02 13:50:59;;;;;;;;;;;19.30;99.90;;;;;;5033256;28;19905;-75
2023/01/02 13:53:47;;;;;;;;;;;19.00;99.90;;;;;;5033395;28;19912;-75
2023/01/02 13:56:16;;;;;;;;;;;19.00;99.90;;;;;;5033067;28;19905;-74
2023/01/02 13:58:43;;;;;;;;;;;19.00;99.90;;;;;;5032928;28;20333;-75
2023/01/02 14:01:24;;;;;;;;;;;18.90;99.90;;;;;;5033235;28;20333;-74
2023/01/02 14:04:11;;;;;;;;;;;19.00;99.90;;;;;;5012061;28;19924;-75
2023/01/02 14:09:15;;;;;;;;;;;18.90;99.90;;;;;;5071213;28;20053;-75
2023/01/02 14:11:41;;;;;;;;;;;18.60;99.90;;;;;;5072906;28;20271;-76
2023/01/02 14:14:18;;;;;;;;;;;18.50;99.90;;;;;;5073407;28;19984;-75
2023/01/02 14:16:47;;;;;;;;;;;18.40;99.90;;;;;;5072828;28;19912;-74
2023/01/02 14:19:18;;;;;;;;;;;18.30;99.90;;;;;;5073969;28;20344;-75
2023/01/02 14:21:53;;;;;;;;;;;18.30;99.90;;;;;;5073585;28;19904;-73
2023/01/02 14:24:27;;;;;;;;;;;18.20;99.90;;;;;;5073206;28;20002;-74
2023/01/02 14:26:59;;;;;;;;;;;18.30;99.90;;;;;;5073448;28;19911;-75
2023/01/02 14:29:25;;;;;;;;;;;18.20;99.90;;;;;;5073877;28;20337;-75
2023/01/02 14:32:06;;;;;;;;;;;18.00;99.90;;;;;;5073279;28;20384;-74
2023/01/02 14:34:40;;;;;;;;;;;18.00;99.90;;;;;;5073165;28;19958;-74
2023/01/02 14:37:08;;;;;;;;;;;17.90;99.90;;;;;;5073884;28;20260;-73
2023/01/02 14:39:35;;;;;;;;;;;17.80;99.90;;;;;;5073245;28;19904;-68
2023/01/02 14:45:06;;;;;;;;;;;17.90;99.90;;;;;;5073088;28;20014;-74
2023/01/02 14:47:54;;;;;;;;;;;18.00;99.90;;;;;;5073005;28;20269;-72
2023/01/02 14:50:22;;;;;;;;;;;18.20;99.90;;;;;;5037946;28;19908;-74
2023/01/02 14:53:08;;;;;;;;;;;18.30;99.90;;;;;;5072638;28;19973;-74
2023/01/02 14:55:37;;;;;;;;;;;18.40;99.90;;;;;;5072230;28;19991;-71